CMB837 Details

Departure: Joint Base McGuire Dix Lakehurst (KWRI)
Arrival: Ramstein Air Force Base (ETAR) at N/A
Route: PTPL5 SHLEP HTO WHALE N135A PORTI NATW ATSUR GAPLI UN20 SAM UM140 DVR UL9 KONAN UL607 SPI UT180 PESOV T180 NIVNU T847 SIPVU T847 OLIVI Q762 XIDOD
Notes: USTRANSCOM CONTRACT FLIGHT


Current Weather Information
KWRI 191556Z 28009KT 10SM BKN027 32/24 A2999 RMK AO2A SLP154 T03160239 $
ETAR 191656Z AUTO 27008KT 9999 SCT055 23/11 A3007 RMK AO2 SLP179 T02320112 $